Time;durP1;ratioP1;P1;durP2;ratioP2;P2;SDS_P1;SDS_P2;PMS_P1;PMS_P2;Temp;Humidity;BMP_temperature;BMP_pressure;BME280_temperature;BME280_humidity;BME280_pressure;Samples;Min_cycle;Max_cycle;Signal;HPM_P1;HPM_P2
2023/03/05 00:01:47;;;;;;;;;;;;;;;;;;5007635;28;20299;-86
2023/03/05 00:04:13;;;;;;;;;;;;;;;;;;4991146;28;20301;-84
2023/03/05 00:06:41;;;;;;;;;;;;;;;;;;5004288;28;20271;-84
2023/03/05 00:09:32;;;;;;;;;;;;;;;;;;5004859;28;19949;-84
2023/03/05 00:11:58;;;;;;;;;;;;;;;;;;4992248;28;19917;-85
2023/03/05 00:14:23;;;;;;;;;;;;;;;;;;5005466;28;20276;-85
2023/03/05 00:16:48;;;;;;;;;;;;;;;;;;5008010;28;19918;-85
2023/03/05 00:19:13;;;;;;;;;;;;;;;;;;5011629;28;19921;-84
2023/03/05 00:21:45;;;;;;;;;;;;;;;;;;4991812;28;19925;-84
2023/03/05 00:24:31;;;;;;;;;;;;;;;;;;5003617;28;19960;-84
2023/03/05 00:26:57;;;;;;;;;;;;;;;;;;5006392;28;19914;-85
2023/03/05 00:29:22;;;;;;;;;;;;;;;;;;4984141;28;19979;-84
2023/03/05 00:31:47;;;;;;;;;;;;;;;;;;4985340;28;19922;-86
2023/03/05 00:34:12;;;;;;;;;;;;;;;;;;5005980;28;19940;-85
2023/03/05 00:36:37;;;;;;;;;;;;;;;;;;5004152;28;20059;-86
2023/03/05 00:39:03;;;;;;;;;;;;;;;;;;5004842;28;19914;-85
2023/03/05 00:41:28;;;;;;;;;;;;;;;;;;5002854;28;19918;-84
2023/03/05 00:43:53;;;;;;;;;;;;;;;;;;5002722;28;19999;-85
2023/03/05 00:46:19;;;;;;;;;;;;;;;;;;5010403;28;20388;-85
2023/03/05 00:48:44;;;;;;;;;;;;;;;;;;5006705;28;19952;-84
2023/03/05 00:53:53;;;;;;;;;;;;;;;;;;5009408;28;20105;-85
2023/03/05 00:56:24;;;;;;;;;;;;;;;;;;5007011;28;20303;-85
2023/03/05 00:59:15;;;;;;;;;;;;;;;;;;4990429;28;19929;-85
2023/03/05 01:01:40;;;;;;;;;;;;;;;;;;5003094;28;19924;-85
2023/03/05 01:04:05;;;;;;;;;;;;;;;;;;5006565;28;19925;-85
2023/03/05 01:06:31;;;;;;;;;;;;;;;;;;5003868;28;19913;-85
2023/03/05 01:08:56;;;;;;;;;;;;;;;;;;5004415;28;20170;-85
2023/03/05 01:11:21;;;;;;;;;;;;;;;;;;5008778;28;19928;-85
2023/03/05 01:13:46;;;;;;;;;;;;;;;;;;5002226;28;19925;-86
2023/03/05 01:16:12;;;;;;;;;;;;;;;;;;5001276;28;19928;-85
2023/03/05 01:18:37;;;;;;;;;;;;;;;;;;5005564;28;19921;-85
2023/03/05 01:21:02;;;;;;;;;;;;;;;;;;4988798;28;19980;-85
2023/03/05 01:23:27;;;;;;;;;;;;;;;;;;5000606;28;19914;-85
2023/03/05 01:25:53;;;;;;;;;;;;;;;;;;5001307;28;19922;-86
2023/03/05 01:28:18;;;;;;;;;;;;;;;;;;5004171;28;20367;-85
2023/03/05 01:30:43;;;;;;;;;;;;;;;;;;5006515;28;19914;-86
2023/03/05 01:33:08;;;;;;;;;;;;;;;;;;5005698;28;20422;-85
2023/03/05 01:35:34;;;;;;;;;;;;;;;;;;5007770;28;19921;-86
2023/03/05 01:37:59;;;;;;;;;;;;;;;;;;5005071;28;20011;-86
2023/03/05 01:40:25;;;;;;;;;;;;;;;;;;5003046;28;20568;-86
2023/03/05 01:42:50;;;;;;;;;;;;;;;;;;5004554;28;19914;-86
2023/03/05 01:45:15;;;;;;;;;;;;;;;;;;5005870;28;20230;-86
2023/03/05 01:47:40;;;;;;;;;;;;;;;;;;4999232;28;20169;-86
2023/03/05 01:50:05;;;;;;;;;;;;;;;;;;5002685;28;20259;-85
2023/03/05 01:52:31;;;;;;;;;;;;;;;;;;5005201;28;20383;-86
2023/03/05 01:54:56;;;;;;;;;;;;;;;;;;5008570;28;19913;-86
2023/03/05 01:57:21;;;;;;;;;;;;;;;;;;5002413;28;20004;-86
2023/03/05 01:59:46;;;;;;;;;;;;;;;;;;5004896;28;19942;-86
2023/03/05 02:02:11;;;;;;;;;;;;;;;;;;4987142;28;19922;-86
2023/03/05 02:04:42;;;;;;;;;;;;;;;;;;5006928;28;20366;-86
2023/03/05 02:07:27;;;;;;;;;;;;;;;;;;5004335;28;19917;-86
2023/03/05 02:10:08;;;;;;;;;;;;;;;;;;5006316;28;20264;-85
2023/03/05 02:12:53;;;;;;;;;;;;;;;;;;4964114;28;19918;-86
2023/03/05 02:15:37;;;;;;;;;;;;;;;;;;4949703;28;19915;-86
2023/03/05 02:18:23;;;;;;;;;;;;;;;;;;4929446;29;19976;-86
2023/03/05 02:20:49;;;;;;;;;;;;;;;;;;4932943;28;20384;-86
2023/03/05 02:23:14;;;;;;;;;;;;;;;;;;4971827;28;20366;-86
2023/03/05 02:25:39;;;;;;;;;;;;;;;;;;5007123;28;20041;-86
2023/03/05 02:28:04;;;;;;;;;;;;;;;;;;5004960;28;19937;-86
2023/03/05 02:30:30;;;;;;;;;;;;;;;;;;5001335;28;20371;-86
2023/03/05 02:32:55;;;;;;;;;;;;;;;;;;5001544;28;20020;-86
2023/03/05 02:35:20;;;;;;;;;;;;;;;;;;5001078;28;20402;-86
2023/03/05 02:37:45;;;;;;;;;;;;;;;;;;5004178;28;19925;-86
2023/03/05 02:40:10;;;;;;;;;;;;;;;;;;4985295;28;19921;-86
2023/03/05 02:42:36;;;;;;;;;;;;;;;;;;5004607;28;19914;-86
2023/03/05 02:45:01;;;;;;;;;;;;;;;;;;5007228;28;20059;-86
2023/03/05 02:47:26;;;;;;;;;;;;;;;;;;5005224;28;19914;-86
2023/03/05 02:49:54;;;;;;;;;;;;;;;;;;5004013;28;20409;-86
2023/03/05 02:52:19;;;;;;;;;;;;;;;;;;4992412;28;19926;-85
2023/03/05 02:54:44;;;;;;;;;;;;;;;;;;4987091;28;19921;-86
2023/03/05 02:57:10;;;;;;;;;;;;;;;;;;5004468;28;19922;-86
2023/03/05 02:59:35;;;;;;;;;;;;;;;;;;4983125;28;19913;-86
2023/03/05 03:02:00;;;;;;;;;;;;;;;;;;4976680;28;20299;-86
2023/03/05 03:07:09;;;;;;;;;;;;;;;;;;4995896;28;20927;-86
2023/03/05 03:09:34;;;;;;;;;;;;;;;;;;5002511;28;19913;-86
2023/03/05 03:12:00;;;;;;;;;;;;;;;;;;4999457;28;19922;-86
2023/03/05 03:14:25;;;;;;;;;;;;;;;;;;4999511;28;20161;-86
2023/03/05 03:16:50;;;;;;;;;;;;;;;;;;4996482;28;20399;-87
2023/03/05 03:19:30;;;;;;;;;;;;;;;;;;5001523;28;19913;-86
2023/03/05 03:22:15;;;;;;;;;;;;;;;;;;5002008;28;19943;-87
2023/03/05 03:24:41;;;;;;;;;;;;;;;;;;5003557;28;19921;-86
2023/03/05 03:27:06;;;;;;;;;;;;;;;;;;5005580;28;20020;-86
2023/03/05 03:29:32;;;;;;;;;;;;;;;;;;4997666;28;19921;-86
2023/03/05 03:32:07;;;;;;;;;;;;;;;;;;4997888;28;19926;-86
2023/03/05 03:34:32;;;;;;;;;;;;;;;;;;4986392;28;19917;-86
2023/03/05 03:36:58;;;;;;;;;;;;;;;;;;5004235;28;19913;-86
2023/03/05 03:39:25;;;;;;;;;;;;;;;;;;4997030;28;19913;-86
2023/03/05 03:42:00;;;;;;;;;;;;;;;;;;5002749;28;20422;-84
2023/03/05 03:44:25;;;;;;;;;;;;;;;;;;4986242;28;19914;-86
2023/03/05 03:46:51;;;;;;;;;;;;;;;;;;4979230;28;19941;-86
2023/03/05 03:49:16;;;;;;;;;;;;;;;;;;4987221;28;19922;-86
2023/03/05 03:51:41;;;;;;;;;;;;;;;;;;4983766;28;20059;-86
2023/03/05 03:54:07;;;;;;;;;;;;;;;;;;4989305;28;20067;-86
2023/03/05 03:56:47;;;;;;;;;;;;;;;;;;5003988;28;20019;-86
2023/03/05 03:59:14;;;;;;;;;;;;;;;;;;4978647;28;20373;-85
2023/03/05 04:01:41;;;;;;;;;;;;;;;;;;4980429;28;20367;-86
2023/03/05 04:04:07;;;;;;;;;;;;;;;;;;4987175;28;19936;-86
2023/03/05 04:06:38;;;;;;;;;;;;;;;;;;4999634;28;19917;-86
2023/03/05 04:09:04;;;;;;;;;;;;;;;;;;4996295;28;19918;-85
2023/03/05 04:11:30;;;;;;;;;;;;;;;;;;4998174;28;19932;-86
2023/03/05 04:13:55;;;;;;;;;;;;;;;;;;5002091;28;20330;-86
2023/03/05 04:16:20;;;;;;;;;;;;;;;;;;5005301;28;19917;-86
2023/03/05 04:18:45;;;;;;;;;;;;;;;;;;5003926;28;19963;-86
2023/03/05 04:21:10;;;;;;;;;;;;;;;;;;5004716;28;20540;-85
2023/03/05 04:23:36;;;;;;;;;;;;;;;;;;4998923;28;20029;-86
2023/03/05 04:26:01;;;;;;;;;;;;;;;;;;5004309;28;20287;-86
2023/03/05 04:28:26;;;;;;;;;;;;;;;;;;5002100;28;19913;-85
2023/03/05 04:30:51;;;;;;;;;;;;;;;;;;5004738;28;20473;-86
2023/03/05 04:33:16;;;;;;;;;;;;;;;;;;5004689;28;19937;-86
2023/03/05 04:35:42;;;;;;;;;;;;;;;;;;4999645;28;19921;-85
2023/03/05 04:38:07;;;;;;;;;;;;;;;;;;4998686;28;19914;-86
2023/03/05 04:40:32;;;;;;;;;;;;;;;;;;4998809;28;19918;-86
2023/03/05 04:42:57;;;;;;;;;;;;;;;;;;5009635;28;20291;-87
2023/03/05 04:45:23;;;;;;;;;;;;;;;;;;5010820;28;20295;-86
2023/03/05 04:47:48;;;;;;;;;;;;;;;;;;5003023;28;19918;-86
2023/03/05 04:50:13;;;;;;;;;;;;;;;;;;5009864;28;19938;-86
2023/03/05 04:52:38;;;;;;;;;;;;;;;;;;5007485;28;19917;-86
2023/03/05 04:55:04;;;;;;;;;;;;;;;;;;5008599;28;20383;-85
2023/03/05 04:57:29;;;;;;;;;;;;;;;;;;5003838;28;19921;-86
2023/03/05 04:59:54;;;;;;;;;;;;;;;;;;5001910;28;19926;-86
2023/03/05 05:02:19;;;;;;;;;;;;;;;;;;5006221;28;20287;-86
2023/03/05 05:04:44;;;;;;;;;;;;;;;;;;4991165;28;20011;-86
2023/03/05 05:07:10;;;;;;;;;;;;;;;;;;5007685;28;20137;-86
2023/03/05 05:09:35;;;;;;;;;;;;;;;;;;5006497;28;19914;-86
2023/03/05 05:12:00;;;;;;;;;;;;;;;;;;4981055;28;19973;-86
2023/03/05 05:14:25;;;;;;;;;;;;;;;;;;4984477;28;20005;-87
2023/03/05 05:16:50;;;;;;;;;;;;;;;;;;5005409;28;19920;-86
2023/03/05 05:19:16;;;;;;;;;;;;;;;;;;5002539;28;19920;-86
2023/03/05 05:21:41;;;;;;;;;;;;;;;;;;5002023;28;20004;-86
2023/03/05 05:24:06;;;;;;;;;;;;;;;;;;5011794;28;19913;-86
2023/03/05 05:26:31;;;;;;;;;;;;;;;;;;5012998;28;19920;-86
2023/03/05 05:28:56;;;;;;;;;;;;;;;;;;5006391;28;19940;-86
2023/03/05 05:31:22;;;;;;;;;;;;;;;;;;5007340;28;19921;-86
2023/03/05 05:33:47;;;;;;;;;;;;;;;;;;5003357;28;19924;-86
2023/03/05 05:36:12;;;;;;;;;;;;;;;;;;5008458;28;19921;-86
2023/03/05 05:38:37;;;;;;;;;;;;;;;;;;5002450;28;20108;-86
2023/03/05 05:41:03;;;;;;;;;;;;;;;;;;5004702;28;19922;-86
2023/03/05 05:43:31;;;;;;;;;;;;;;;;;;5000770;28;19921;-86
2023/03/05 05:45:56;;;;;;;;;;;;;;;;;;5004984;28;19921;-86
2023/03/05 05:48:21;;;;;;;;;;;;;;;;;;5004136;28;19929;-86
2023/03/05 05:50:46;;;;;;;;;;;;;;;;;;4999327;28;21188;-86
2023/03/05 05:53:12;;;;;;;;;;;;;;;;;;5005650;28;20256;-86
2023/03/05 05:55:37;;;;;;;;;;;;;;;;;;5004870;28;19929;-85
2023/03/05 05:58:02;;;;;;;;;;;;;;;;;;4994124;28;19924;-86
2023/03/05 06:00:27;;;;;;;;;;;;;;;;;;5007090;28;19914;-86
2023/03/05 06:02:52;;;;;;;;;;;;;;;;;;5033288;22;19925;-80
2023/03/05 06:05:18;;;;;;;;;;;;;;;;;;5026421;28;20362;-80
2023/03/05 06:07:43;;;;;;;;;;;;;;;;;;5023825;28;20004;-80
2023/03/05 06:10:08;;;;;;;;;;;;;;;;;;5023924;28;19928;-80
2023/03/05 06:12:34;;;;;;;;;;;;;;;;;;5025213;28;20374;-80
2023/03/05 06:14:59;;;;;;;;;;;;;;;;;;5021809;28;19925;-80
2023/03/05 06:17:24;;;;;;;;;;;;;;;;;;5021897;28;20298;-80
2023/03/05 06:19:49;;;;;;;;;;;;;;;;;;5025953;28;19975;-80
2023/03/05 06:22:14;;;;;;;;;;;;;;;;;;5024812;28;20015;-80
2023/03/05 06:24:40;;;;;;;;;;;;;;;;;;5027441;28;20364;-80
2023/03/05 06:27:05;;;;;;;;;;;;;;;;;;5022456;28;19967;-80
2023/03/05 06:29:30;;;;;;;;;;;;;;;;;;5023686;28;20388;-80
2023/03/05 06:31:55;;;;;;;;;;;;;;;;;;5027471;28;19995;-80
2023/03/05 06:34:20;;;;;;;;;;;;;;;;;;5010345;28;20439;-80
2023/03/05 06:36:45;;;;;;;;;;;;;;;;;;5023848;28;19913;-81
2023/03/05 06:39:11;;;;;;;;;;;;;;;;;;5012306;28;19921;-80
2023/03/05 06:41:36;;;;;;;;;;;;;;;;;;5023094;28;20446;-80
2023/03/05 06:44:01;;;;;;;;;;;;;;;;;;5027249;28;20377;-80
2023/03/05 06:46:27;;;;;;;;;;;;;;;;;;5024091;28;19917;-80
2023/03/05 06:48:52;;;;;;;;;;;;;;;;;;5021080;28;19913;-80
2023/03/05 06:51:17;;;;;;;;;;;;;;;;;;5023989;28;19920;-80
2023/03/05 06:53:42;;;;;;;;;;;;;;;;;;5024675;28;19913;-80
2023/03/05 06:56:08;;;;;;;;;;;;;;;;;;5029317;28;19923;-80
2023/03/05 06:58:33;;;;;;;;;;;;;;;;;;5020607;28;19920;-80
2023/03/05 07:00:58;;;;;;;;;;;;;;;;;;5022396;28;20059;-80
2023/03/05 07:03:24;;;;;;;;;;;;;;;;;;5023737;28;20294;-80
2023/03/05 07:05:49;;;;;;;;;;;;;;;;;;5020054;28;19913;-80
2023/03/05 07:08:14;;;;;;;;;;;;;;;;;;5020166;28;20012;-80
2023/03/05 07:10:39;;;;;;;;;;;;;;;;;;5026436;28;19933;-80
2023/03/05 07:13:04;;;;;;;;;;;;;;;;;;5020936;28;19936;-79
2023/03/05 07:15:29;;;;;;;;;;;;;;;;;;5023273;28;19913;-80
2023/03/05 07:17:55;;;;;;;;;;;;;;;;;;5017047;28;19921;-81
2023/03/05 07:20:20;;;;;;;;;;;;;;;;;;5005301;28;19913;-80
2023/03/05 07:22:45;;;;;;;;;;;;;;;;;;5021300;28;20331;-80
2023/03/05 07:25:10;;;;;;;;;;;;;;;;;;5020128;28;20532;-80
2023/03/05 07:27:36;;;;;;;;;;;;;;;;;;5021770;28;19919;-81
2023/03/05 07:30:01;;;;;;;;;;;;;;;;;;5029944;28;19972;-80
2023/03/05 07:32:26;;;;;;;;;;;;;;;;;;5020604;28;20410;-80
2023/03/05 07:34:51;;;;;;;;;;;;;;;;;;5021785;28;19913;-80
2023/03/05 07:37:16;;;;;;;;;;;;;;;;;;5019688;28;20409;-81
2023/03/05 07:39:41;;;;;;;;;;;;;;;;;;5023229;28;19935;-80
2023/03/05 07:42:07;;;;;;;;;;;;;;;;;;5024129;28;19983;-80
2023/03/05 07:44:32;;;;;;;;;;;;;;;;;;5020502;28;19913;-81
2023/03/05 07:46:57;;;;;;;;;;;;;;;;;;5016232;28;19925;-80
2023/03/05 07:49:22;;;;;;;;;;;;;;;;;;5022044;28;20096;-81
2023/03/05 07:51:47;;;;;;;;;;;;;;;;;;5024428;28;19971;-81
2023/03/05 07:54:13;;;;;;;;;;;;;;;;;;5023534;28;19995;-81
2023/03/05 07:56:38;;;;;;;;;;;;;;;;;;5020272;28;20013;-81
2023/03/05 07:59:03;;;;;;;;;;;;;;;;;;5020012;28;19913;-81
2023/03/05 08:01:28;;;;;;;;;;;;;;;;;;5023295;28;19975;-81
2023/03/05 08:03:53;;;;;;;;;;;;;;;;;;5023848;28;19921;-80
2023/03/05 08:06:18;;;;;;;;;;;;;;;;;;5024093;28;20307;-81
2023/03/05 08:08:44;;;;;;;;;;;;;;;;;;5023582;28;19917;-81
2023/03/05 08:11:09;;;;;;;;;;;;;;;;;;5017835;28;19957;-81
2023/03/05 08:13:34;;;;;;;;;;;;;;;;;;5018518;28;19913;-81
2023/03/05 08:15:59;;;;;;;;;;;;;;;;;;5008295;28;19917;-81
2023/03/05 08:18:24;;;;;;;;;;;;;;;;;;5029162;28;19917;-81
2023/03/05 08:20:49;;;;;;;;;;;;;;;;;;5018872;28;19917;-82
2023/03/05 08:23:15;;;;;;;;;;;;;;;;;;5005031;28;19955;-81
2023/03/05 08:25:40;;;;;;;;;;;;;;;;;;5022777;28;19919;-82
2023/03/05 08:28:05;;;;;;;;;;;;;;;;;;5020911;28;20532;-82
2023/03/05 08:30:30;;;;;;;;;;;;;;;;;;5007379;28;19920;-82
2023/03/05 08:32:56;;;;;;;;;;;;;;;;;;5020956;28;19925;-82
2023/03/05 08:35:21;;;;;;;;;;;;;;;;;;5011009;28;20000;-82
2023/03/05 08:37:46;;;;;;;;;;;;;;;;;;5021965;28;19940;-82
2023/03/05 08:40:11;;;;;;;;;;;;;;;;;;5024648;28;20337;-82
2023/03/05 08:42:36;;;;;;;;;;;;;;;;;;5024056;28;19924;-82
2023/03/05 08:45:02;;;;;;;;;;;;;;;;;;5020219;28;20337;-82
2023/03/05 08:47:27;;;;;;;;;;;;;;;;;;5020196;28;20012;-82
2023/03/05 08:49:54;;;;;;;;;;;;;;;;;;5022405;28;19954;-81
2023/03/05 08:52:19;;;;;;;;;;;;;;;;;;5022986;28;20298;-81
2023/03/05 08:54:44;;;;;;;;;;;;;;;;;;5023225;28;19917;-81
2023/03/05 08:57:09;;;;;;;;;;;;;;;;;;5020924;28;19982;-81
2023/03/05 08:59:35;;;;;;;;;;;;;;;;;;5023501;28;20381;-81
2023/03/05 09:02:00;;;;;;;;;;;;;;;;;;5022076;28;19924;-80
2023/03/05 09:04:25;;;;;;;;;;;;;;;;;;5022636;28;19929;-81
2023/03/05 09:06:50;;;;;;;;;;;;;;;;;;5022085;28;20051;-81
2023/03/05 09:09:15;;;;;;;;;;;;;;;;;;5024552;28;19992;-80
2023/03/05 09:11:41;;;;;;;;;;;;;;;;;;5022186;28;19956;-80
2023/03/05 09:14:06;;;;;;;;;;;;;;;;;;5020856;28;20315;-80
2023/03/05 09:16:31;;;;;;;;;;;;;;;;;;5020819;28;19924;-81
2023/03/05 09:18:56;;;;;;;;;;;;;;;;;;5004891;28;20366;-80
2023/03/05 09:21:22;;;;;;;;;;;;;;;;;;5021239;28;19975;-81
2023/03/05 09:23:47;;;;;;;;;;;;;;;;;;5022501;28;19913;-81
2023/03/05 09:26:12;;;;;;;;;;;;;;;;;;4994118;28;19917;-81
2023/03/05 09:28:37;;;;;;;;;;;;;;;;;;5019510;28;19953;-81
2023/03/05 09:31:02;;;;;;;;;;;;;;;;;;5021628;28;19917;-81
2023/03/05 09:33:28;;;;;;;;;;;;;;;;;;5020098;28;19925;-81
2023/03/05 09:35:53;;;;;;;;;;;;;;;;;;5023378;28;20374;-81
2023/03/05 09:38:20;;;;;;;;;;;;;;;;;;5023388;28;19967;-82
2023/03/05 09:40:45;;;;;;;;;;;;;;;;;;5019318;28;19917;-81
2023/03/05 09:43:10;;;;;;;;;;;;;;;;;;5019303;28;20691;-82
2023/03/05 09:45:35;;;;;;;;;;;;;;;;;;5023774;28;19924;-83
2023/03/05 09:48:01;;;;;;;;;;;;;;;;;;5024882;28;19927;-83
2023/03/05 09:50:30;;;;;;;;;;;;;;;;;;5020347;28;19916;-82
2023/03/05 09:52:56;;;;;;;;;;;;;;;;;;5024178;28;19925;-83
2023/03/05 09:55:21;;;;;;;;;;;;;;;;;;5019568;28;19939;-83
2023/03/05 09:57:46;;;;;;;;;;;;;;;;;;5019743;28;19945;-82
2023/03/05 10:00:11;;;;;;;;;;;;;;;;;;5021221;28;20332;-82
2023/03/05 10:02:36;;;;;;;;;;;;;;;;;;5019009;28;19959;-82
2023/03/05 10:05:02;;;;;;;;;;;;;;;;;;5024427;28;20371;-82
2023/03/05 10:07:27;;;;;;;;;;;;;;;;;;5014492;28;19924;-81
2023/03/05 10:09:52;;;;;;;;;;;;;;;;;;5024844;28;19952;-80
2023/03/05 10:12:19;;;;;;;;;;;;;;;;;;5025133;28;19921;-81
2023/03/05 10:14:44;;;;;;;;;;;;;;;;;;5021250;28;19925;-81
2023/03/05 10:17:10;;;;;;;;;;;;;;;;;;5009143;28;19925;-80
2023/03/05 10:19:35;;;;;;;;;;;;;;;;;;5020683;28;20326;-80
2023/03/05 10:22:00;;;;;;;;;;;;;;;;;;5025689;28;20064;-80
2023/03/05 10:24:25;;;;;;;;;;;;;;;;;;5020958;28;19964;-81
2023/03/05 10:26:50;;;;;;;;;;;;;;;;;;5017287;28;20073;-80
2023/03/05 10:29:15;;;;;;;;;;;;;;;;;;5019559;28;20010;-80
2023/03/05 10:31:41;;;;;;;;;;;;;;;;;;5021124;28;19921;-81
2023/03/05 10:34:06;;;;;;;;;;;;;;;;;;5019517;28;19921;-81
2023/03/05 10:36:31;;;;;;;;;;;;;;;;;;5004951;28;20159;-81
2023/03/05 10:38:58;;;;;;;;;;;;;;;;;;5023436;28;19921;-81
2023/03/05 10:41:23;;;;;;;;;;;;;;;;;;5019923;28;20374;-81
2023/03/05 10:43:49;;;;;;;;;;;;;;;;;;5021704;28;19927;-81
2023/03/05 10:46:14;;;;;;;;;;;;;;;;;;5018952;28;19917;-81
2023/03/05 10:48:39;;;;;;;;;;;;;;;;;;5022708;28;20319;-81
2023/03/05 10:51:04;;;;;;;;;;;;;;;;;;5018824;28;19914;-81
2023/03/05 10:53:29;;;;;;;;;;;;;;;;;;5018702;28;19921;-80
2023/03/05 10:55:55;;;;;;;;;;;;;;;;;;5025429;28;19921;-81
2023/03/05 10:58:20;;;;;;;;;;;;;;;;;;5018578;28;20365;-81
2023/03/05 11:00:45;;;;;;;;;;;;;;;;;;5019473;28;20289;-81
2023/03/05 11:03:12;;;;;;;;;;;;;;;;;;5017193;28;21308;-80
2023/03/05 11:05:38;;;;;;;;;;;;;;;;;;5020486;28;20008;-83
2023/03/05 11:08:03;;;;;;;;;;;;;;;;;;5017135;28;19921;-80
2023/03/05 11:10:28;;;;;;;;;;;;;;;;;;5003352;28;19933;-80
2023/03/05 11:12:56;;;;;;;;;;;;;;;;;;5022625;28;20454;-81
2023/03/05 11:15:24;;;;;;;;;;;;;;;;;;4998497;28;20359;-80
2023/03/05 11:17:49;;;;;;;;;;;;;;;;;;5017895;28;20063;-80
2023/03/05 11:20:14;;;;;;;;;;;;;;;;;;5021880;28;20624;-80
2023/03/05 11:22:40;;;;;;;;;;;;;;;;;;4999838;28;19918;-80
2023/03/05 11:25:05;;;;;;;;;;;;;;;;;;5018448;28;20058;-80
2023/03/05 11:27:30;;;;;;;;;;;;;;;;;;5023074;28;20383;-80
2023/03/05 11:29:55;;;;;;;;;;;;;;;;;;5018844;28;19924;-81
2023/03/05 11:32:20;;;;;;;;;;;;;;;;;;5018820;28;19924;-80
2023/03/05 11:34:45;;;;;;;;;;;;;;;;;;4999461;28;20263;-80
2023/03/05 11:37:11;;;;;;;;;;;;;;;;;;5021119;28;20441;-80
2023/03/05 11:39:37;;;;;;;;;;;;;;;;;;5014616;28;20355;-80
2023/03/05 11:42:03;;;;;;;;;;;;;;;;;;5020246;28;19917;-80
2023/03/05 11:44:28;;;;;;;;;;;;;;;;;;5018748;28;19928;-80
2023/03/05 11:46:53;;;;;;;;;;;;;;;;;;5017785;28;20326;-80
2023/03/05 11:49:18;;;;;;;;;;;;;;;;;;5007406;28;20442;-80
2023/03/05 11:51:43;;;;;;;;;;;;;;;;;;5021690;28;19929;-79
2023/03/05 11:54:08;;;;;;;;;;;;;;;;;;5017115;28;19921;-79
2023/03/05 11:56:34;;;;;;;;;;;;;;;;;;5020473;28;19916;-80
2023/03/05 11:58:59;;;;;;;;;;;;;;;;;;5023277;28;20422;-80
2023/03/05 12:01:24;;;;;;;;;;;;;;;;;;5018127;28;19917;-80
2023/03/05 12:04:08;;;;;;;;;;;;;;;;;;5036360;22;19991;-84
2023/03/05 12:06:59;;;;;;;;;;;;;;;;;;4946958;28;20170;-84
2023/03/05 12:09:24;;;;;;;;;;;;;;;;;;4945472;29;19934;-85
2023/03/05 12:11:49;;;;;;;;;;;;;;;;;;4977888;28;19922;-84
2023/03/05 12:14:15;;;;;;;;;;;;;;;;;;5015368;28;19929;-84
2023/03/05 12:16:40;;;;;;;;;;;;;;;;;;5012178;28;19921;-84
2023/03/05 12:19:05;;;;;;;;;;;;;;;;;;5012251;28;19945;-84
2023/03/05 12:21:31;;;;;;;;;;;;;;;;;;4999367;28;19949;-83
2023/03/05 12:24:03;;;;;;;;;;;;;;;;;;5016808;28;20020;-84
2023/03/05 12:26:28;;;;;;;;;;;;;;;;;;5001254;28;19924;-84
2023/03/05 12:28:54;;;;;;;;;;;;;;;;;;5005614;28;19917;-84
2023/03/05 12:31:19;;;;;;;;;;;;;;;;;;5007711;28;20346;-84
2023/03/05 12:33:44;;;;;;;;;;;;;;;;;;5017049;28;19917;-82
2023/03/05 12:36:09;;;;;;;;;;;;;;;;;;5002803;28;20023;-84
2023/03/05 12:38:36;;;;;;;;;;;;;;;;;;5013772;28;19948;-85
2023/03/05 12:41:02;;;;;;;;;;;;;;;;;;5007393;28;19929;-85
2023/03/05 12:43:27;;;;;;;;;;;;;;;;;;5010771;28;20009;-85
2023/03/05 12:45:52;;;;;;;;;;;;;;;;;;5009672;28;20397;-84
2023/03/05 12:48:17;;;;;;;;;;;;;;;;;;5008239;28;19937;-84
2023/03/05 12:50:43;;;;;;;;;;;;;;;;;;5009989;28;20586;-84
2023/03/05 12:53:09;;;;;;;;;;;;;;;;;;5007883;28;19924;-84
2023/03/05 12:55:34;;;;;;;;;;;;;;;;;;5017488;28;19949;-84
2023/03/05 12:57:59;;;;;;;;;;;;;;;;;;5013234;28;20336;-84
2023/03/05 13:00:24;;;;;;;;;;;;;;;;;;5007927;28;19925;-84
2023/03/05 13:02:51;;;;;;;;;;;;;;;;;;5014055;28;19959;-84
2023/03/05 13:05:16;;;;;;;;;;;;;;;;;;5021003;28;20243;-84
2023/03/05 13:07:41;;;;;;;;;;;;;;;;;;5003029;28;19924;-86
2023/03/05 13:10:06;;;;;;;;;;;;;;;;;;5015147;28;19947;-85
2023/03/05 13:12:31;;;;;;;;;;;;;;;;;;5015213;28;19917;-84
2023/03/05 13:14:57;;;;;;;;;;;;;;;;;;5010145;28;19945;-84
2023/03/05 13:17:22;;;;;;;;;;;;;;;;;;5011396;28;20550;-84
2023/03/05 13:19:47;;;;;;;;;;;;;;;;;;5010659;28;20004;-84
2023/03/05 13:22:12;;;;;;;;;;;;;;;;;;5014148;28;19925;-85
2023/03/05 13:24:37;;;;;;;;;;;;;;;;;;5011531;28;20085;-85
2023/03/05 13:27:03;;;;;;;;;;;;;;;;;;5009386;28;20391;-84
2023/03/05 13:29:29;;;;;;;;;;;;;;;;;;5013346;28;20310;-84
2023/03/05 13:31:54;;;;;;;;;;;;;;;;;;5017044;28;19921;-85
2023/03/05 13:34:19;;;;;;;;;;;;;;;;;;5020960;28;19960;-84
2023/03/05 13:36:45;;;;;;;;;;;;;;;;;;5014414;28;19921;-84
2023/03/05 13:39:10;;;;;;;;;;;;;;;;;;5014302;28;19923;-85
2023/03/05 13:41:35;;;;;;;;;;;;;;;;;;5013388;28;19940;-84
2023/03/05 13:44:00;;;;;;;;;;;;;;;;;;5020037;28;19949;-85
2023/03/05 13:46:26;;;;;;;;;;;;;;;;;;5003743;28;20270;-83
2023/03/05 13:48:51;;;;;;;;;;;;;;;;;;5012595;28;19944;-84
2023/03/05 13:51:16;;;;;;;;;;;;;;;;;;5020568;28;19921;-84
2023/03/05 13:53:41;;;;;;;;;;;;;;;;;;5014890;28;19978;-84
2023/03/05 13:56:07;;;;;;;;;;;;;;;;;;5016056;28;19917;-84
2023/03/05 13:58:32;;;;;;;;;;;;;;;;;;5014478;28;20430;-84
2023/03/05 14:00:57;;;;;;;;;;;;;;;;;;5013816;28;19989;-85
2023/03/05 14:03:22;;;;;;;;;;;;;;;;;;5016329;28;19920;-85
2023/03/05 14:05:48;;;;;;;;;;;;;;;;;;5010866;28;19976;-84
2023/03/05 14:08:14;;;;;;;;;;;;;;;;;;5013206;28;19922;-84
2023/03/05 14:10:39;;;;;;;;;;;;;;;;;;5005015;28;19973;-84
2023/03/05 14:13:04;;;;;;;;;;;;;;;;;;5017954;28;19921;-84
2023/03/05 14:15:29;;;;;;;;;;;;;;;;;;5012578;28;19917;-84
2023/03/05 14:17:54;;;;;;;;;;;;;;;;;;5016945;28;20374;-84
2023/03/05 14:20:21;;;;;;;;;;;;;;;;;;5013748;28;19928;-84
2023/03/05 14:22:49;;;;;;;;;;;;;;;;;;5012380;28;19921;-85
2023/03/05 14:25:14;;;;;;;;;;;;;;;;;;5014981;28;19944;-84
2023/03/05 14:27:40;;;;;;;;;;;;;;;;;;5014801;28;19972;-85
2023/03/05 14:30:05;;;;;;;;;;;;;;;;;;4998010;28;19976;-89
2023/03/05 14:32:31;;;;;;;;;;;;;;;;;;5003181;28;20383;-86
2023/03/05 14:34:57;;;;;;;;;;;;;;;;;;5005385;28;20409;-86
2023/03/05 14:37:22;;;;;;;;;;;;;;;;;;5007390;28;20096;-88
2023/03/05 14:39:47;;;;;;;;;;;;;;;;;;5010866;28;20398;-88
2023/03/05 14:42:12;;;;;;;;;;;;;;;;;;5007377;28;19925;-86
2023/03/05 14:44:37;;;;;;;;;;;;;;;;;;5005977;28;20004;-87
2023/03/05 14:47:03;;;;;;;;;;;;;;;;;;5008470;28;19956;-87
2023/03/05 14:49:28;;;;;;;;;;;;;;;;;;4992202;28;19913;-86
2023/03/05 14:51:53;;;;;;;;;;;;;;;;;;5010115;28;19917;-85
2023/03/05 14:54:18;;;;;;;;;;;;;;;;;;5004675;28;19937;-87
2023/03/05 14:56:43;;;;;;;;;;;;;;;;;;5002873;28;19976;-88
2023/03/05 14:59:08;;;;;;;;;;;;;;;;;;4995717;28;19984;-88
2023/03/05 15:01:34;;;;;;;;;;;;;;;;;;5005063;28;19929;-87
2023/03/05 15:04:09;;;;;;;;;;;;;;;;;;5016045;28;19925;-85
2023/03/05 15:06:35;;;;;;;;;;;;;;;;;;5002245;28;20008;-85
2023/03/05 15:09:00;;;;;;;;;;;;;;;;;;5015521;28;20062;-84
2023/03/05 15:11:28;;;;;;;;;;;;;;;;;;5022087;28;20339;-85
2023/03/05 15:13:54;;;;;;;;;;;;;;;;;;5018118;28;19913;-84
2023/03/05 15:16:19;;;;;;;;;;;;;;;;;;5013258;28;20043;-85
2023/03/05 15:18:44;;;;;;;;;;;;;;;;;;5012774;28;19914;-84
2023/03/05 15:21:09;;;;;;;;;;;;;;;;;;5018945;28;19918;-85
2023/03/05 15:23:37;;;;;;;;;;;;;;;;;;5007561;28;19953;-86
2023/03/05 15:26:05;;;;;;;;;;;;;;;;;;5006065;28;19925;-85
2023/03/05 15:28:30;;;;;;;;;;;;;;;;;;5010576;28;19918;-85
2023/03/05 15:30:55;;;;;;;;;;;;;;;;;;5014755;28;20443;-85
2023/03/05 15:33:21;;;;;;;;;;;;;;;;;;5008871;28;20505;-86
2023/03/05 15:35:47;;;;;;;;;;;;;;;;;;5011039;28;19922;-85
2023/03/05 15:38:12;;;;;;;;;;;;;;;;;;5001654;28;20381;-85
2023/03/05 15:40:37;;;;;;;;;;;;;;;;;;5007729;28;20239;-85
2023/03/05 15:43:02;;;;;;;;;;;;;;;;;;4991861;28;19918;-85
2023/03/05 15:45:30;;;;;;;;;;;;;;;;;;5013503;28;19917;-86
2023/03/05 15:47:55;;;;;;;;;;;;;;;;;;5008722;28;20108;-85
2023/03/05 15:50:20;;;;;;;;;;;;;;;;;;5001209;28;19917;-85
2023/03/05 15:52:45;;;;;;;;;;;;;;;;;;5010107;28;19918;-85
2023/03/05 15:55:11;;;;;;;;;;;;;;;;;;5009681;28;19972;-85
2023/03/05 15:57:36;;;;;;;;;;;;;;;;;;5009590;28;19952;-84
2023/03/05 16:00:01;;;;;;;;;;;;;;;;;;4999625;28;19968;-85
2023/03/05 16:02:26;;;;;;;;;;;;;;;;;;5000916;28;20007;-86
2023/03/05 16:04:52;;;;;;;;;;;;;;;;;;5002377;28;19917;-85
2023/03/05 16:07:17;;;;;;;;;;;;;;;;;;5007707;28;19964;-85
2023/03/05 16:09:42;;;;;;;;;;;;;;;;;;5008473;28;19972;-84
2023/03/05 16:12:07;;;;;;;;;;;;;;;;;;4999776;28;19921;-84
2023/03/05 16:14:32;;;;;;;;;;;;;;;;;;5007932;28;19925;-85
2023/03/05 16:16:58;;;;;;;;;;;;;;;;;;5005535;28;20496;-85
2023/03/05 16:19:23;;;;;;;;;;;;;;;;;;5008119;28;19996;-85
2023/03/05 16:21:48;;;;;;;;;;;;;;;;;;5007154;28;19949;-85
2023/03/05 16:24:13;;;;;;;;;;;;;;;;;;4988381;28;19918;-86
2023/03/05 16:26:38;;;;;;;;;;;;;;;;;;5016894;28;19918;-85
2023/03/05 16:29:04;;;;;;;;;;;;;;;;;;5010785;28;19917;-85
2023/03/05 16:31:29;;;;;;;;;;;;;;;;;;4997409;28;19992;-85
2023/03/05 16:33:54;;;;;;;;;;;;;;;;;;5000907;28;19922;-85
2023/03/05 16:36:19;;;;;;;;;;;;;;;;;;5008983;28;19921;-85
2023/03/05 16:38:45;;;;;;;;;;;;;;;;;;5015305;28;19917;-85
2023/03/05 16:41:10;;;;;;;;;;;;;;;;;;5003255;28;20172;-84
2023/03/05 16:43:35;;;;;;;;;;;;;;;;;;5003915;28;19921;-85